sensor_id;sensor_type;location;lat;lon;timestamp;pressure;altitude;pressure_sealevel;temperature;humidity
48882;BME280;57063;51.406;-2.402;2023-04-08T00:00:57;101210.66;;;2.91;100.00
48882;BME280;57063;51.406;-2.402;2023-04-08T00:03:23;101206.22;;;3.04;99.29
48882;BME280;57063;51.406;-2.402;2023-04-08T00:05:51;101206.22;;;3.04;98.06
48882;BME280;57063;51.406;-2.402;2023-04-08T00:08:19;101213.00;;;3.08;97.47
48882;BME280;57063;51.406;-2.402;2023-04-08T00:10:47;101211.38;;;3.00;97.73
48882;BME280;57063;51.406;-2.402;2023-04-08T00:13:13;101206.41;;;2.93;98.11
48882;BME280;57063;51.406;-2.402;2023-04-08T00:15:43;101209.78;;;2.93;98.47
48882;BME280;57063;51.406;-2.402;2023-04-08T00:18:12;101201.34;;;2.88;98.85
48882;BME280;57063;51.406;-2.402;2023-04-08T00:20:37;101214.09;;;2.87;98.85
48882;BME280;57063;51.406;-2.402;2023-04-08T00:23:05;101212.44;;;2.84;99.27
48882;BME280;57063;51.406;-2.402;2023-04-08T00:25:31;101210.66;;;2.91;99.35
48882;BME280;57063;51.406;-2.402;2023-04-08T00:27:56;101212.28;;;2.96;99.93
48882;BME280;57063;51.406;-2.402;2023-04-08T00:30:22;101222.44;;;2.99;100.00
48882;BME280;57063;51.406;-2.402;2023-04-08T00:33:02;101209.78;;;2.93;100.00
48882;BME280;57063;51.406;-2.402;2023-04-08T00:35:30;101221.53;;;3.04;100.00
48882;BME280;57063;51.406;-2.402;2023-04-08T00:37:59;101214.53;;;3.16;100.00
48882;BME280;57063;51.406;-2.402;2023-04-08T00:40:25;101220.41;;;3.25;99.23
48882;BME280;57063;51.406;-2.402;2023-04-08T00:42:57;101220.56;;;3.12;99.57
48882;BME280;57063;51.406;-2.402;2023-04-08T00:45:25;101223.97;;;3.13;99.71
48882;BME280;57063;51.406;-2.402;2023-04-08T00:47:51;101218.25;;;2.95;100.00
48882;BME280;57063;51.406;-2.402;2023-04-08T00:50:20;101212.44;;;2.83;100.00
48882;BME280;57063;51.406;-2.402;2023-04-08T00:52:46;101237.88;;;2.89;100.00
48882;BME280;57063;51.406;-2.402;2023-04-08T00:55:19;101211.72;;;2.73;100.00
48882;BME280;57063;51.406;-2.402;2023-04-08T00:57:47;101215.88;;;2.83;100.00
48882;BME280;57063;51.406;-2.402;2023-04-08T01:00:16;101229.47;;;2.84;100.00
48882;BME280;57063;51.406;-2.402;2023-04-08T01:02:51;101221.91;;;2.74;100.00
48882;BME280;57063;51.406;-2.402;2023-04-08T01:05:30;101233.72;;;2.83;100.00
48882;BME280;57063;51.406;-2.402;2023-04-08T01:08:04;101216.88;;;2.70;100.00
48882;BME280;57063;51.406;-2.402;2023-04-08T01:10:33;101220.19;;;2.75;100.00
48882;BME280;57063;51.406;-2.402;2023-04-08T01:13:07;101229.56;;;2.76;100.00
48882;BME280;57063;51.406;-2.402;2023-04-08T01:15:35;101220.13;;;2.81;100.00
48882;BME280;57063;51.406;-2.402;2023-04-08T01:18:06;101216.72;;;2.82;100.00
48882;BME280;57063;51.406;-2.402;2023-04-08T01:20:39;101230.22;;;2.89;100.00
48882;BME280;57063;51.406;-2.402;2023-04-08T01:26:19;101226.19;;;2.74;100.00
48882;BME280;57063;51.406;-2.402;2023-04-08T01:28:52;101221.97;;;2.70;100.00
48882;BME280;57063;51.406;-2.402;2023-04-08T01:31:26;101236.34;;;2.75;100.00
48882;BME280;57063;51.406;-2.402;2023-04-08T01:33:56;101222.84;;;2.66;100.00
48882;BME280;57063;51.406;-2.402;2023-04-08T01:36:31;101233.88;;;2.71;100.00
48882;BME280;57063;51.406;-2.402;2023-04-08T01:39:09;101222.91;;;2.64;100.00
48882;BME280;57063;51.406;-2.402;2023-04-08T01:41:41;101239.84;;;2.67;100.00
48882;BME280;57063;51.406;-2.402;2023-04-08T01:44:10;101239.75;;;2.74;100.00
48882;BME280;57063;51.406;-2.402;2023-04-08T01:46:41;101237.13;;;2.82;100.00
48882;BME280;57063;51.406;-2.402;2023-04-08T01:49:13;101245.63;;;2.81;100.00
48882;BME280;57063;51.406;-2.402;2023-04-08T01:51:44;101245.69;;;2.78;100.00
48882;BME280;57063;51.406;-2.402;2023-04-08T01:54:24;101230.50;;;2.67;100.00
48882;BME280;57063;51.406;-2.402;2023-04-08T01:56:50;101232.31;;;2.59;100.00
48882;BME280;57063;51.406;-2.402;2023-04-08T01:59:23;101235.72;;;2.56;100.00
48882;BME280;57063;51.406;-2.402;2023-04-08T02:01:58;101249.34;;;2.52;100.00
48882;BME280;57063;51.406;-2.402;2023-04-08T02:04:34;101240.97;;;2.41;100.00
48882;BME280;57063;51.406;-2.402;2023-04-08T02:07:03;101241.81;;;2.43;100.00
48882;BME280;57063;51.406;-2.402;2023-04-08T02:09:37;101229.22;;;2.31;100.00
48882;BME280;57063;51.406;-2.402;2023-04-08T02:12:21;101254.63;;;2.34;100.00
48882;BME280;57063;51.406;-2.402;2023-04-08T02:15:11;101243.69;;;2.26;100.00
48882;BME280;57063;51.406;-2.402;2023-04-08T02:18:10;101240.47;;;2.10;100.00
48882;BME280;57063;51.406;-2.402;2023-04-08T02:20:42;101253.16;;;2.11;100.00
48882;BME280;57063;51.406;-2.402;2023-04-08T02:23:20;101256.59;;;2.10;100.00
48882;BME280;57063;51.406;-2.402;2023-04-08T02:25:57;101237.13;;;2.02;100.00
48882;BME280;57063;51.406;-2.402;2023-04-08T02:28:26;101239.69;;;2.03;100.00
48882;BME280;57063;51.406;-2.402;2023-04-08T02:30:53;101237.16;;;1.99;100.00
48882;BME280;57063;51.406;-2.402;2023-04-08T02:33:25;101251.63;;;1.95;100.00
48882;BME280;57063;51.406;-2.402;2023-04-08T02:35:59;101247.47;;;1.88;100.00
48882;BME280;57063;51.406;-2.402;2023-04-08T02:38:26;101243.25;;;1.84;100.00
48882;BME280;57063;51.406;-2.402;2023-04-08T02:40:59;101238.09;;;1.90;100.00
48882;BME280;57063;51.406;-2.402;2023-04-08T02:43:27;101256.78;;;1.89;100.00
48882;BME280;57063;51.406;-2.402;2023-04-08T02:45:59;101264.41;;;1.90;100.00
48882;BME280;57063;51.406;-2.402;2023-04-08T02:48:33;101259.28;;;1.92;100.00
48882;BME280;57063;51.406;-2.402;2023-04-08T02:51:04;101254.13;;;2.00;100.00
48882;BME280;57063;51.406;-2.402;2023-04-08T02:53:33;101264.31;;;2.01;100.00
48882;BME280;57063;51.406;-2.402;2023-04-08T02:56:04;101266.88;;;1.98;100.00
48882;BME280;57063;51.406;-2.402;2023-04-08T02:58:33;101265.19;;;1.97;100.00
48882;BME280;57063;51.406;-2.402;2023-04-08T03:01:01;101250.84;;;1.87;100.00
48882;BME280;57063;51.406;-2.402;2023-04-08T03:03:32;101256.81;;;1.83;100.00
48882;BME280;57063;51.406;-2.402;2023-04-08T03:06:00;101274.63;;;1.84;100.00
48882;BME280;57063;51.406;-2.402;2023-04-08T03:08:28;101278.84;;;1.87;100.00
48882;BME280;57063;51.406;-2.402;2023-04-08T03:10:54;101260.25;;;1.79;100.00
48882;BME280;57063;51.406;-2.402;2023-04-08T03:13:20;101267.00;;;1.86;100.00
48882;BME280;57063;51.406;-2.402;2023-04-08T03:15:49;101261.97;;;1.77;100.00
48882;BME280;57063;51.406;-2.402;2023-04-08T03:18:20;101263.69;;;1.71;100.00
48882;BME280;57063;51.406;-2.402;2023-04-08T03:20:46;101277.25;;;1.74;100.00
48882;BME280;57063;51.406;-2.402;2023-04-08T03:23:12;101281.53;;;1.71;100.00
48882;BME280;57063;51.406;-2.402;2023-04-08T03:25:43;101259.56;;;1.54;100.00
48882;BME280;57063;51.406;-2.402;2023-04-08T03:28:18;101267.22;;;1.55;100.00
48882;BME280;57063;51.406;-2.402;2023-04-08T03:30:47;101267.25;;;1.49;100.00
48882;BME280;57063;51.406;-2.402;2023-04-08T03:33:15;101276.56;;;1.48;100.00
48882;BME280;57063;51.406;-2.402;2023-04-08T03:35:44;101270.69;;;1.45;100.00
48882;BME280;57063;51.406;-2.402;2023-04-08T03:38:21;101282.53;;;1.46;100.00
48882;BME280;57063;51.406;-2.402;2023-04-08T03:40:52;101259.75;;;1.27;100.00
48882;BME280;57063;51.406;-2.402;2023-04-08T03:43:34;101278.38;;;1.31;100.00
48882;BME280;57063;51.406;-2.402;2023-04-08T03:45:59;101275.03;;;1.23;100.00
48882;BME280;57063;51.406;-2.402;2023-04-08T03:48:28;101282.66;;;1.21;100.00
48882;BME280;57063;51.406;-2.402;2023-04-08T03:50:56;101274.28;;;1.10;100.00
48882;BME280;57063;51.406;-2.402;2023-04-08T03:53:27;101280.19;;;1.09;100.00
48882;BME280;57063;51.406;-2.402;2023-04-08T03:55:59;101292.81;;;1.32;100.00
48882;BME280;57063;51.406;-2.402;2023-04-08T03:58:34;101270.84;;;1.17;100.00
48882;BME280;57063;51.406;-2.402;2023-04-08T04:01:00;101274.16;;;1.28;100.00
48882;BME280;57063;51.406;-2.402;2023-04-08T04:03:28;101288.56;;;1.26;100.00
48882;BME280;57063;51.406;-2.402;2023-04-08T04:05:54;101288.56;;;1.28;100.00
48882;BME280;57063;51.406;-2.402;2023-04-08T04:08:28;101301.22;;;1.39;100.00
48882;BME280;57063;51.406;-2.402;2023-04-08T04:11:00;101290.22;;;1.35;100.00
48882;BME280;57063;51.406;-2.402;2023-04-08T04:13:25;101302.84;;;1.52;100.00
48882;BME280;57063;51.406;-2.402;2023-04-08T04:15:54;101294.38;;;1.52;100.00
48882;BME280;57063;51.406;-2.402;2023-04-08T04:18:31;101307.94;;;1.52;100.00
48882;BME280;57063;51.406;-2.402;2023-04-08T04:21:04;101311.31;;;1.51;100.00
48882;BME280;57063;51.406;-2.402;2023-04-08T04:23:37;101302.09;;;1.32;100.00
48882;BME280;57063;51.406;-2.402;2023-04-08T04:26:12;101321.59;;;1.36;100.00
48882;BME280;57063;51.406;-2.402;2023-04-08T04:28:50;101300.47;;;1.24;100.00
48882;BME280;57063;51.406;-2.402;2023-04-08T04:31:23;101320.72;;;1.41;100.00
48882;BME280;57063;51.406;-2.402;2023-04-08T04:33:50;101316.50;;;1.42;100.00
48882;BME280;57063;51.406;-2.402;2023-04-08T04:36:20;101323.25;;;1.43;100.00
48882;BME280;57063;51.406;-2.402;2023-04-08T04:38:54;101306.34;;;1.31;100.00
48882;BME280;57063;51.406;-2.402;2023-04-08T04:41:43;101306.38;;;1.26;100.00
48882;BME280;57063;51.406;-2.402;2023-04-08T04:44:09;101313.13;;;1.31;100.00
48882;BME280;57063;51.406;-2.402;2023-04-08T04:46:40;101309.72;;;1.32;100.00
48882;BME280;57063;51.406;-2.402;2023-04-08T04:49:06;101327.47;;;1.45;100.00
48882;BME280;57063;51.406;-2.402;2023-04-08T04:51:40;101315.66;;;1.34;100.00
48882;BME280;57063;51.406;-2.402;2023-04-08T04:54:23;101315.69;;;1.29;100.00
48882;BME280;57063;51.406;-2.402;2023-04-08T04:56:52;101319.13;;;1.25;100.00
48882;BME280;57063;51.406;-2.402;2023-04-08T04:59:17;101325.06;;;1.19;100.00
48882;BME280;57063;51.406;-2.402;2023-04-08T05:01:45;101331.00;;;1.20;100.00
48882;BME280;57063;51.406;-2.402;2023-04-08T05:04:11;101320.84;;;1.12;100.00
48882;BME280;57063;51.406;-2.402;2023-04-08T05:06:37;101335.25;;;1.13;100.00
48882;BME280;57063;51.406;-2.402;2023-04-08T05:09:07;101336.13;;;1.06;100.00
48882;BME280;57063;51.406;-2.402;2023-04-08T05:11:33;101347.19;;;0.99;100.00
48882;BME280;57063;51.406;-2.402;2023-04-08T05:14:04;101340.34;;;1.07;100.00
48882;BME280;57063;51.406;-2.402;2023-04-08T05:16:29;101352.22;;;1.17;100.00
48882;BME280;57063;51.406;-2.402;2023-04-08T05:18:55;101342.84;;;1.21;100.00
48882;BME280;57063;51.406;-2.402;2023-04-08T05:21:23;101350.47;;;1.25;100.00
48882;BME280;57063;51.406;-2.402;2023-04-08T05:23:52;101339.47;;;1.23;100.00
48882;BME280;57063;51.406;-2.402;2023-04-08T05:26:19;101350.47;;;1.19;100.00
48882;BME280;57063;51.406;-2.402;2023-04-08T05:28:48;101361.50;;;1.24;100.00
48882;BME280;57063;51.406;-2.402;2023-04-08T05:31:16;101364.03;;;1.21;100.00
48882;BME280;57063;51.406;-2.402;2023-04-08T05:33:41;101347.09;;;1.23;100.00
48882;BME280;57063;51.406;-2.402;2023-04-08T05:36:10;101358.06;;;1.33;100.00
48882;BME280;57063;51.406;-2.402;2023-04-08T05:38:39;101369.91;;;1.37;100.00
48882;BME280;57063;51.406;-2.402;2023-04-08T05:41:10;101370.78;;;1.32;100.00
48882;BME280;57063;51.406;-2.402;2023-04-08T05:43:50;101364.06;;;1.24;100.00
48882;BME280;57063;51.406;-2.402;2023-04-08T05:46:27;101375.88;;;1.28;100.00
48882;BME280;57063;51.406;-2.402;2023-04-08T05:49:03;101362.38;;;1.20;100.00
48882;BME280;57063;51.406;-2.402;2023-04-08T05:51:32;101366.59;;;1.24;100.00
48882;BME280;57063;51.406;-2.402;2023-04-08T05:54:00;101367.41;;;1.26;100.00
48882;BME280;57063;51.406;-2.402;2023-04-08T05:56:28;101369.97;;;1.30;100.00
48882;BME280;57063;51.406;-2.402;2023-04-08T05:58:58;101370.81;;;1.27;100.00
48882;BME280;57063;51.406;-2.402;2023-04-08T06:01:24;101375.88;;;1.28;100.00
48882;BME280;57063;51.406;-2.402;2023-04-08T06:03:50;101379.25;;;1.34;100.00
48882;BME280;57063;51.406;-2.402;2023-04-08T06:06:17;101376.72;;;1.31;100.00
48882;BME280;57063;51.406;-2.402;2023-04-08T06:08:48;101392.78;;;1.39;100.00
48882;BME280;57063;51.406;-2.402;2023-04-08T06:11:18;101382.63;;;1.40;100.00
48882;BME280;57063;51.406;-2.402;2023-04-08T06:13:44;101378.38;;;1.41;100.00
48882;BME280;57063;51.406;-2.402;2023-04-08T06:16:17;101370.69;;;1.50;100.00
48882;BME280;57063;51.406;-2.402;2023-04-08T06:18:45;101378.31;;;1.55;100.00
48882;BME280;57063;51.406;-2.402;2023-04-08T06:21:13;101385.88;;;1.68;100.00
48882;BME280;57063;51.406;-2.402;2023-04-08T06:23:41;101384.09;;;1.81;100.00
48882;BME280;57063;51.406;-2.402;2023-04-08T06:26:09;101382.38;;;1.88;100.00
48882;BME280;57063;51.406;-2.402;2023-04-08T06:28:37;101377.91;;;2.14;100.00
48882;BME280;57063;51.406;-2.402;2023-04-08T06:31:05;101394.75;;;2.37;100.00
48882;BME280;57063;51.406;-2.402;2023-04-08T06:33:37;101374.34;;;2.40;100.00
48882;BME280;57063;51.406;-2.402;2023-04-08T06:36:10;101387.72;;;2.64;100.00
48882;BME280;57063;51.406;-2.402;2023-04-08T06:38:37;101395.13;;;2.85;100.00
48882;BME280;57063;51.406;-2.402;2023-04-08T06:41:09;101396.59;;;3.11;100.00
48882;BME280;57063;51.406;-2.402;2023-04-08T06:43:42;101392.16;;;3.25;100.00
48882;BME280;57063;51.406;-2.402;2023-04-08T06:46:08;101409.72;;;3.50;100.00
48882;BME280;57063;51.406;-2.402;2023-04-08T06:48:36;101391.59;;;3.71;100.00
48882;BME280;57063;51.406;-2.402;2023-04-08T06:51:05;101405.69;;;3.97;100.00
48882;BME280;57063;51.406;-2.402;2023-04-08T06:53:35;101400.31;;;4.14;100.00
48882;BME280;57063;51.406;-2.402;2023-04-08T06:56:18;101399.00;;;4.44;100.00
48882;BME280;57063;51.406;-2.402;2023-04-08T06:58:49;101414.56;;;4.80;100.00
48882;BME280;57063;51.406;-2.402;2023-04-08T07:01:32;101407.09;;;5.14;100.00
48882;BME280;57063;51.406;-2.402;2023-04-08T07:04:15;101410.06;;;5.38;100.00
48882;BME280;57063;51.406;-2.402;2023-04-08T07:06:49;101412.22;;;5.57;100.00
48882;BME280;57063;51.406;-2.402;2023-04-08T07:09:24;101411.00;;;5.74;97.73
48882;BME280;57063;51.406;-2.402;2023-04-08T07:11:55;101418.94;;;6.04;96.75
48882;BME280;57063;51.406;-2.402;2023-04-08T07:14:33;101411.47;;;6.30;93.75
48882;BME280;57063;51.406;-2.402;2023-04-08T07:17:07;101430.84;;;6.76;92.01
48882;BME280;57063;51.406;-2.402;2023-04-08T07:19:35;101416.56;;;6.99;90.57
48882;BME280;57063;51.406;-2.402;2023-04-08T07:22:07;101412.13;;;7.37;89.12
48882;BME280;57063;51.406;-2.402;2023-04-08T07:24:43;101427.28;;;7.74;83.65
48882;BME280;57063;51.406;-2.402;2023-04-08T07:27:17;101420.22;;;8.09;81.33
48882;BME280;57063;51.406;-2.402;2023-04-08T07:29:52;101436.13;;;8.48;81.07
48882;BME280;57063;51.406;-2.402;2023-04-08T07:35:20;101435.22;;;9.01;72.27
48882;BME280;57063;51.406;-2.402;2023-04-08T07:37:58;101427.50;;;9.48;68.98
48882;BME280;57063;51.406;-2.402;2023-04-08T07:40:29;101449.59;;;10.23;67.37
48882;BME280;57063;51.406;-2.402;2023-04-08T07:43:08;101454.00;;;10.84;65.47
48882;BME280;57063;51.406;-2.402;2023-04-08T07:45:48;101439.34;;;11.44;63.74
48882;BME280;57063;51.406;-2.402;2023-04-08T07:48:25;101455.69;;;12.02;59.73
48882;BME280;57063;51.406;-2.402;2023-04-08T07:51:06;101455.13;;;12.31;58.42
48882;BME280;57063;51.406;-2.402;2023-04-08T07:53:37;101450.66;;;12.70;58.08
48882;BME280;57063;51.406;-2.402;2023-04-08T07:56:13;101463.50;;;13.06;58.08
48882;BME280;57063;51.406;-2.402;2023-04-08T07:58:50;101466.63;;;13.46;56.08
48882;BME280;57063;51.406;-2.402;2023-04-08T08:01:25;101460.56;;;13.79;54.82
48882;BME280;57063;51.406;-2.402;2023-04-08T08:10:40;101468.16;;;16.96;44.80
48882;BME280;57063;51.406;-2.402;2023-04-08T08:16:19;101478.50;;;18.09;40.66
48882;BME280;57063;51.406;-2.402;2023-04-08T08:18:55;101473.22;;;18.93;39.59
48882;BME280;57063;51.406;-2.402;2023-04-08T08:24:56;101489.09;;;20.02;36.60
48882;BME280;57063;51.406;-2.402;2023-04-08T08:28:14;101491.81;;;20.33;36.71
48882;BME280;57063;51.406;-2.402;2023-04-08T08:31:28;101496.00;;;20.68;35.92
48882;BME280;57063;51.406;-2.402;2023-04-08T08:41:24;101505.03;;;21.67;35.50
48882;BME280;57063;51.406;-2.402;2023-04-08T08:44:22;101508.63;;;21.35;34.82
48882;BME280;57063;51.406;-2.402;2023-04-08T08:47:25;101493.19;;;21.83;34.33
48882;BME280;57063;51.406;-2.402;2023-04-08T08:50:09;101499.81;;;21.96;36.15
48882;BME280;57063;51.406;-2.402;2023-04-08T08:53:07;101494.75;;;22.53;33.20
48882;BME280;57063;51.406;-2.402;2023-04-08T08:56:12;101504.69;;;22.11;34.13
48882;BME280;57063;51.406;-2.402;2023-04-08T08:59:05;101510.66;;;22.61;33.30
48882;BME280;57063;51.406;-2.402;2023-04-08T09:04:58;101508.22;;;23.44;32.60
48882;BME280;57063;51.406;-2.402;2023-04-08T09:07:34;101499.19;;;22.43;32.84
48882;BME280;57063;51.406;-2.402;2023-04-08T09:10:52;101515.72;;;23.67;33.06
48882;BME280;57063;51.406;-2.402;2023-04-08T09:14:04;101512.13;;;23.96;31.84
48882;BME280;57063;51.406;-2.402;2023-04-08T09:33:05;101510.41;;;24.22;31.63
48882;BME280;57063;51.406;-2.402;2023-04-08T09:35:52;101505.47;;;25.15;29.92
48882;BME280;57063;51.406;-2.402;2023-04-08T09:41:36;101513.91;;;23.77;32.12
48882;BME280;57063;51.406;-2.402;2023-04-08T09:50:49;101519.06;;;25.20;29.70
48882;BME280;57063;51.406;-2.402;2023-04-08T09:54:11;101518.69;;;23.36;31.69
48882;BME280;57063;51.406;-2.402;2023-04-08T09:57:00;101522.22;;;24.18;31.90
48882;BME280;57063;51.406;-2.402;2023-04-08T10:03:09;101516.44;;;24.76;31.90
48882;BME280;57063;51.406;-2.402;2023-04-08T10:05:54;101515.91;;;24.47;33.03
48882;BME280;57063;51.406;-2.402;2023-04-08T10:18:43;101505.69;;;24.96;29.83
48882;BME280;57063;51.406;-2.402;2023-04-08T10:31:49;101513.97;;;25.27;31.23
48882;BME280;57063;51.406;-2.402;2023-04-08T10:38:15;101501.44;;;24.15;31.02
48882;BME280;57063;51.406;-2.402;2023-04-08T10:40:48;101498.66;;;23.71;31.59
48882;BME280;57063;51.406;-2.402;2023-04-08T10:43:14;101500.75;;;23.40;34.02
48882;BME280;57063;51.406;-2.402;2023-04-08T10:46:08;101496.47;;;24.12;31.45
48882;BME280;57063;51.406;-2.402;2023-04-08T10:48:39;101497.25;;;23.77;32.66
48882;BME280;57063;51.406;-2.402;2023-04-08T10:51:16;101501.53;;;23.50;34.13
48882;BME280;57063;51.406;-2.402;2023-04-08T10:53:42;101492.53;;;23.80;33.37
48882;BME280;57063;51.406;-2.402;2023-04-08T10:59:40;101492.19;;;23.00;32.79
48882;BME280;57063;51.406;-2.402;2023-04-08T11:02:23;101490.63;;;23.63;33.00
48882;BME280;57063;51.406;-2.402;2023-04-08T11:05:11;101488.78;;;22.12;35.68
48882;BME280;57063;51.406;-2.402;2023-04-08T11:07:48;101487.00;;;22.52;34.54
48882;BME280;57063;51.406;-2.402;2023-04-08T11:10:21;101472.69;;;22.74;33.80
48882;BME280;57063;51.406;-2.402;2023-04-08T11:12:51;101469.41;;;22.52;33.99
48882;BME280;57063;51.406;-2.402;2023-04-08T11:15:47;101476.75;;;22.10;33.71
48882;BME280;57063;51.406;-2.402;2023-04-08T11:18:52;101480.88;;;21.83;34.60
48882;BME280;57063;51.406;-2.402;2023-04-08T11:21:42;101472.22;;;21.21;35.63
48882;BME280;57063;51.406;-2.402;2023-04-08T11:24:23;101472.25;;;21.31;36.00
48882;BME280;57063;51.406;-2.402;2023-04-08T11:27:11;101471.28;;;20.70;35.98
48882;BME280;57063;51.406;-2.402;2023-04-08T11:29:52;101460.28;;;20.56;37.27
48882;BME280;57063;51.406;-2.402;2023-04-08T11:32:44;101473.25;;;22.09;35.21
48882;BME280;57063;51.406;-2.402;2023-04-08T11:38:12;101474.97;;;22.39;32.47
48882;BME280;57063;51.406;-2.402;2023-04-08T11:41:15;101459.16;;;22.10;34.06
48882;BME280;57063;51.406;-2.402;2023-04-08T11:43:58;101467.78;;;22.32;33.06
48882;BME280;57063;51.406;-2.402;2023-04-08T11:46:27;101468.81;;;21.30;34.36
48882;BME280;57063;51.406;-2.402;2023-04-08T11:49:04;101463.13;;;21.25;34.65
48882;BME280;57063;51.406;-2.402;2023-04-08T11:51:57;101466.81;;;21.44;33.72
48882;BME280;57063;51.406;-2.402;2023-04-08T11:54:51;101459.13;;;20.16;36.16
48882;BME280;57063;51.406;-2.402;2023-04-08T12:01:22;101444.22;;;22.30;31.60
48882;BME280;57063;51.406;-2.402;2023-04-08T12:04:03;101449.91;;;22.92;28.24
48882;BME280;57063;51.406;-2.402;2023-04-08T12:07:07;101457.47;;;23.42;29.23
48882;BME280;57063;51.406;-2.402;2023-04-08T12:09:55;101447.56;;;23.54;29.47
48882;BME280;57063;51.406;-2.402;2023-04-08T12:12:55;101443.28;;;22.88;29.88
48882;BME280;57063;51.406;-2.402;2023-04-08T12:15:58;101451.13;;;21.83;30.99
48882;BME280;57063;51.406;-2.402;2023-04-08T12:18:58;101458.59;;;22.16;31.32
48882;BME280;57063;51.406;-2.402;2023-04-08T12:21:29;101443.91;;;21.65;31.73
48882;BME280;57063;51.406;-2.402;2023-04-08T12:23:54;101457.75;;;20.54;33.23
48882;BME280;57063;51.406;-2.402;2023-04-08T12:26:25;101451.22;;;19.29;35.60
48882;BME280;57063;51.406;-2.402;2023-04-08T12:28:53;101450.25;;;18.85;35.79
48882;BME280;57063;51.406;-2.402;2023-04-08T12:31:28;101451.06;;;18.97;37.39
48882;BME280;57063;51.406;-2.402;2023-04-08T12:34:05;101451.50;;;18.22;37.08
48882;BME280;57063;51.406;-2.402;2023-04-08T12:36:35;101433.75;;;19.07;35.95
48882;BME280;57063;51.406;-2.402;2023-04-08T12:39:14;101434.88;;;19.59;35.24
48882;BME280;57063;51.406;-2.402;2023-04-08T12:42:01;101417.47;;;20.55;33.14
48882;BME280;57063;51.406;-2.402;2023-04-08T12:44:38;101437.53;;;20.56;33.54
48882;BME280;57063;51.406;-2.402;2023-04-08T12:50:22;101434.66;;;20.27;32.97
48882;BME280;57063;51.406;-2.402;2023-04-08T12:52:54;101431.88;;;20.61;31.93
48882;BME280;57063;51.406;-2.402;2023-04-08T12:55:19;101439.94;;;20.69;32.52
48882;BME280;57063;51.406;-2.402;2023-04-08T12:57:55;101438.63;;;20.42;33.61
48882;BME280;57063;51.406;-2.402;2023-04-08T13:00:38;101429.53;;;21.89;30.49
48882;BME280;57063;51.406;-2.402;2023-04-08T13:03:37;101433.16;;;21.78;30.10
48882;BME280;57063;51.406;-2.402;2023-04-08T13:06:02;101433.97;;;21.78;30.33
48882;BME280;57063;51.406;-2.402;2023-04-08T13:08:34;101417.72;;;22.71;30.03
48882;BME280;57063;51.406;-2.402;2023-04-08T13:11:01;101427.72;;;23.32;27.89
48882;BME280;57063;51.406;-2.402;2023-04-08T13:13:27;101419.69;;;22.59;28.96
48882;BME280;57063;51.406;-2.402;2023-04-08T13:15:53;101423.59;;;23.47;28.74
48882;BME280;57063;51.406;-2.402;2023-04-08T13:18:24;101432.19;;;23.95;28.49
48882;BME280;57063;51.406;-2.402;2023-04-08T13:20:52;101420.50;;;23.98;26.41
48882;BME280;57063;51.406;-2.402;2023-04-08T13:23:23;101421.56;;;23.87;27.20
48882;BME280;57063;51.406;-2.402;2023-04-08T13:26:15;101418.81;;;23.61;26.30
48882;BME280;57063;51.406;-2.402;2023-04-08T13:28:43;101416.38;;;22.47;26.67
48882;BME280;57063;51.406;-2.402;2023-04-08T13:31:08;101406.94;;;22.54;27.76
48882;BME280;57063;51.406;-2.402;2023-04-08T13:33:41;101419.31;;;21.66;29.90
48882;BME280;57063;51.406;-2.402;2023-04-08T13:36:07;101405.22;;;20.02;29.92
48882;BME280;57063;51.406;-2.402;2023-04-08T13:38:32;101413.78;;;20.04;30.40
48882;BME280;57063;51.406;-2.402;2023-04-08T13:40:58;101411.97;;;19.84;32.30
48882;BME280;57063;51.406;-2.402;2023-04-08T13:43:23;101410.22;;;19.62;30.39
48882;BME280;57063;51.406;-2.402;2023-04-08T13:45:49;101413.69;;;18.61;30.92
48882;BME280;57063;51.406;-2.402;2023-04-08T13:48:15;101400.06;;;18.80;31.30
48882;BME280;57063;51.406;-2.402;2023-04-08T13:50:41;101404.59;;;18.31;32.86
48882;BME280;57063;51.406;-2.402;2023-04-08T13:53:07;101390.44;;;18.23;32.21
48882;BME280;57063;51.406;-2.402;2023-04-08T13:55:33;101392.84;;;18.02;33.03
48882;BME280;57063;51.406;-2.402;2023-04-08T13:58:01;101394.38;;;17.56;34.95
48882;BME280;57063;51.406;-2.402;2023-04-08T14:00:30;101395.84;;;17.10;34.06
48882;BME280;57063;51.406;-2.402;2023-04-08T14:03:00;101390.84;;;17.07;34.92
48882;BME280;57063;51.406;-2.402;2023-04-08T14:05:26;101364.03;;;17.42;35.03
48882;BME280;57063;51.406;-2.402;2023-04-08T14:07:52;101369.25;;;17.42;35.87
48882;BME280;57063;51.406;-2.402;2023-04-08T14:10:17;101368.22;;;17.45;36.57
48882;BME280;57063;51.406;-2.402;2023-04-08T14:12:43;101366.56;;;17.44;35.16
48882;BME280;57063;51.406;-2.402;2023-04-08T14:15:09;101383.28;;;17.41;36.08
48882;BME280;57063;51.406;-2.402;2023-04-08T14:17:34;101375.78;;;17.24;36.89
48882;BME280;57063;51.406;-2.402;2023-04-08T14:20:02;101365.66;;;17.32;35.38
48882;BME280;57063;51.406;-2.402;2023-04-08T14:22:29;101385.47;;;17.35;36.21
48882;BME280;57063;51.406;-2.402;2023-04-08T14:24:57;101383.47;;;17.38;35.53
48882;BME280;57063;51.406;-2.402;2023-04-08T14:27:23;101378.88;;;17.42;35.63
48882;BME280;57063;51.406;-2.402;2023-04-08T14:29:48;101387.00;;;17.00;36.48
48882;BME280;57063;51.406;-2.402;2023-04-08T14:32:14;101371.78;;;16.94;37.02
48882;BME280;57063;51.406;-2.402;2023-04-08T14:34:39;101369.56;;;16.75;37.11
48882;BME280;57063;51.406;-2.402;2023-04-08T14:37:05;101361.53;;;16.53;37.11
48882;BME280;57063;51.406;-2.402;2023-04-08T14:39:30;101355.31;;;16.68;37.86
48882;BME280;57063;51.406;-2.402;2023-04-08T14:41:56;101358.75;;;16.81;36.80
48882;BME280;57063;51.406;-2.402;2023-04-08T14:44:22;101358.31;;;16.75;36.75
48882;BME280;57063;51.406;-2.402;2023-04-08T14:46:48;101350.59;;;16.35;37.71
48882;BME280;57063;51.406;-2.402;2023-04-08T14:49:13;101347.03;;;16.36;38.79
48882;BME280;57063;51.406;-2.402;2023-04-08T14:51:39;101347.84;;;15.98;38.35